sensor_id;sensor_type;location;lat;lon;timestamp;P1;durP1;ratioP1;P2;durP2;ratioP2
39434;SDS011;66825;51.880;-0.518;2023-04-25T00:01:10;2.25;;;1.23;;
39434;SDS011;66825;51.880;-0.518;2023-04-25T00:03:38;2.15;;;1.33;;
39434;SDS011;66825;51.880;-0.518;2023-04-25T00:06:05;2.92;;;1.40;;
39434;SDS011;66825;51.880;-0.518;2023-04-25T00:08:31;2.65;;;1.30;;
39434;SDS011;66825;51.880;-0.518;2023-04-25T00:10:57;2.63;;;1.40;;
39434;SDS011;66825;51.880;-0.518;2023-04-25T00:13:23;2.30;;;1.30;;
39434;SDS011;66825;51.880;-0.518;2023-04-25T00:15:50;2.30;;;1.50;;
39434;SDS011;66825;51.880;-0.518;2023-04-25T00:18:18;2.50;;;1.75;;
39434;SDS011;66825;51.880;-0.518;2023-04-25T00:20:45;1.98;;;1.25;;
39434;SDS011;66825;51.880;-0.518;2023-04-25T00:23:12;2.42;;;1.40;;
39434;SDS011;66825;51.880;-0.518;2023-04-25T00:25:45;2.00;;;1.40;;
39434;SDS011;66825;51.880;-0.518;2023-04-25T00:28:13;1.85;;;1.23;;
39434;SDS011;66825;51.880;-0.518;2023-04-25T00:30:39;2.20;;;1.10;;
39434;SDS011;66825;51.880;-0.518;2023-04-25T00:33:05;1.63;;;1.10;;
39434;SDS011;66825;51.880;-0.518;2023-04-25T00:35:31;2.20;;;1.30;;
39434;SDS011;66825;51.880;-0.518;2023-04-25T00:37:57;1.80;;;1.02;;
39434;SDS011;66825;51.880;-0.518;2023-04-25T00:40:22;2.53;;;1.30;;
39434;SDS011;66825;51.880;-0.518;2023-04-25T00:42:48;2.53;;;1.40;;
39434;SDS011;66825;51.880;-0.518;2023-04-25T00:45:14;2.42;;;1.30;;
39434;SDS011;66825;51.880;-0.518;2023-04-25T00:47:41;2.83;;;1.33;;
39434;SDS011;66825;51.880;-0.518;2023-04-25T00:50:07;2.25;;;1.30;;
39434;SDS011;66825;51.880;-0.518;2023-04-25T00:52:33;1.77;;;1.20;;
39434;SDS011;66825;51.880;-0.518;2023-04-25T00:54:59;1.60;;;1.08;;
39434;SDS011;66825;51.880;-0.518;2023-04-25T00:57:24;2.20;;;1.23;;
39434;SDS011;66825;51.880;-0.518;2023-04-25T00:59:51;2.17;;;1.17;;
39434;SDS011;66825;51.880;-0.518;2023-04-25T01:02:17;2.42;;;1.27;;
39434;SDS011;66825;51.880;-0.518;2023-04-25T01:04:45;1.90;;;1.20;;
39434;SDS011;66825;51.880;-0.518;2023-04-25T01:07:12;1.77;;;1.10;;
39434;SDS011;66825;51.880;-0.518;2023-04-25T01:09:38;1.77;;;1.20;;
39434;SDS011;66825;51.880;-0.518;2023-04-25T01:12:04;2.10;;;1.10;;
39434;SDS011;66825;51.880;-0.518;2023-04-25T01:14:30;2.53;;;1.40;;
39434;SDS011;66825;51.880;-0.518;2023-04-25T01:16:56;2.13;;;1.20;;
39434;SDS011;66825;51.880;-0.518;2023-04-25T01:19:22;1.55;;;1.10;;
39434;SDS011;66825;51.880;-0.518;2023-04-25T01:21:48;3.17;;;1.30;;
39434;SDS011;66825;51.880;-0.518;2023-04-25T01:24:14;2.08;;;1.27;;
39434;SDS011;66825;51.880;-0.518;2023-04-25T01:26:41;2.28;;;1.15;;
39434;SDS011;66825;51.880;-0.518;2023-04-25T01:29:10;1.98;;;1.10;;
39434;SDS011;66825;51.880;-0.518;2023-04-25T01:31:35;2.33;;;1.38;;
39434;SDS011;66825;51.880;-0.518;2023-04-25T01:34:01;2.10;;;1.05;;
39434;SDS011;66825;51.880;-0.518;2023-04-25T01:36:27;1.77;;;1.02;;
39434;SDS011;66825;51.880;-0.518;2023-04-25T01:38:53;2.17;;;1.30;;
39434;SDS011;66825;51.880;-0.518;2023-04-25T01:41:18;1.27;;;0.90;;
39434;SDS011;66825;51.880;-0.518;2023-04-25T01:43:44;2.92;;;1.27;;
39434;SDS011;66825;51.880;-0.518;2023-04-25T01:46:10;2.42;;;1.38;;
39434;SDS011;66825;51.880;-0.518;2023-04-25T01:48:36;1.75;;;1.02;;
39434;SDS011;66825;51.880;-0.518;2023-04-25T01:51:02;2.00;;;1.23;;
39434;SDS011;66825;51.880;-0.518;2023-04-25T01:53:28;2.22;;;1.17;;
39434;SDS011;66825;51.880;-0.518;2023-04-25T01:55:53;1.90;;;1.10;;
39434;SDS011;66825;51.880;-0.518;2023-04-25T01:58:19;1.80;;;1.20;;
39434;SDS011;66825;51.880;-0.518;2023-04-25T02:00:44;2.17;;;1.17;;
39434;SDS011;66825;51.880;-0.518;2023-04-25T02:03:10;2.53;;;1.13;;
39434;SDS011;66825;51.880;-0.518;2023-04-25T02:05:36;2.33;;;1.25;;
39434;SDS011;66825;51.880;-0.518;2023-04-25T02:08:04;1.38;;;1.10;;
39434;SDS011;66825;51.880;-0.518;2023-04-25T02:10:30;2.22;;;1.10;;
39434;SDS011;66825;51.880;-0.518;2023-04-25T02:12:56;1.65;;;0.90;;
39434;SDS011;66825;51.880;-0.518;2023-04-25T02:15:22;2.90;;;1.30;;
39434;SDS011;66825;51.880;-0.518;2023-04-25T02:17:48;2.63;;;1.20;;
39434;SDS011;66825;51.880;-0.518;2023-04-25T02:20:14;2.47;;;1.20;;
39434;SDS011;66825;51.880;-0.518;2023-04-25T02:22:41;1.98;;;1.13;;
39434;SDS011;66825;51.880;-0.518;2023-04-25T02:25:07;2.25;;;1.10;;
39434;SDS011;66825;51.880;-0.518;2023-04-25T02:27:34;1.73;;;1.13;;
39434;SDS011;66825;51.880;-0.518;2023-04-25T02:30:00;1.67;;;1.00;;
39434;SDS011;66825;51.880;-0.518;2023-04-25T02:32:25;1.85;;;0.98;;
39434;SDS011;66825;51.880;-0.518;2023-04-25T02:34:52;1.90;;;1.05;;
39434;SDS011;66825;51.880;-0.518;2023-04-25T02:37:17;1.80;;;0.95;;
39434;SDS011;66825;51.880;-0.518;2023-04-25T02:39:43;2.42;;;1.20;;
39434;SDS011;66825;51.880;-0.518;2023-04-25T02:42:08;1.65;;;0.90;;
39434;SDS011;66825;51.880;-0.518;2023-04-25T02:44:34;1.95;;;1.10;;
39434;SDS011;66825;51.880;-0.518;2023-04-25T02:46:59;2.13;;;1.10;;
39434;SDS011;66825;51.880;-0.518;2023-04-25T02:49:25;1.88;;;1.10;;
39434;SDS011;66825;51.880;-0.518;2023-04-25T02:51:50;1.58;;;0.98;;
39434;SDS011;66825;51.880;-0.518;2023-04-25T02:54:16;1.90;;;1.10;;
39434;SDS011;66825;51.880;-0.518;2023-04-25T02:56:41;2.08;;;1.10;;
39434;SDS011;66825;51.880;-0.518;2023-04-25T02:59:07;1.35;;;1.05;;
39434;SDS011;66825;51.880;-0.518;2023-04-25T03:01:32;2.50;;;1.13;;
39434;SDS011;66825;51.880;-0.518;2023-04-25T03:03:58;1.55;;;1.10;;
39434;SDS011;66825;51.880;-0.518;2023-04-25T03:06:23;1.50;;;0.90;;
39434;SDS011;66825;51.880;-0.518;2023-04-25T03:08:48;2.25;;;1.20;;
39434;SDS011;66825;51.880;-0.518;2023-04-25T03:11:14;2.33;;;1.33;;
39434;SDS011;66825;51.880;-0.518;2023-04-25T03:13:39;2.33;;;1.15;;
39434;SDS011;66825;51.880;-0.518;2023-04-25T03:16:05;2.35;;;1.17;;
39434;SDS011;66825;51.880;-0.518;2023-04-25T03:18:31;1.80;;;1.00;;
39434;SDS011;66825;51.880;-0.518;2023-04-25T03:20:56;1.98;;;1.10;;
39434;SDS011;66825;51.880;-0.518;2023-04-25T03:23:22;2.60;;;1.30;;
39434;SDS011;66825;51.880;-0.518;2023-04-25T03:25:47;1.80;;;1.17;;
39434;SDS011;66825;51.880;-0.518;2023-04-25T03:28:13;2.45;;;1.27;;
39434;SDS011;66825;51.880;-0.518;2023-04-25T03:30:39;2.08;;;1.10;;
39434;SDS011;66825;51.880;-0.518;2023-04-25T03:33:05;1.75;;;0.93;;
39434;SDS011;66825;51.880;-0.518;2023-04-25T03:35:30;1.88;;;0.98;;
39434;SDS011;66825;51.880;-0.518;2023-04-25T03:37:56;1.85;;;1.20;;
39434;SDS011;66825;51.880;-0.518;2023-04-25T03:40:21;1.85;;;1.10;;
39434;SDS011;66825;51.880;-0.518;2023-04-25T03:42:47;1.55;;;1.02;;
39434;SDS011;66825;51.880;-0.518;2023-04-25T03:45:12;1.55;;;0.95;;
39434;SDS011;66825;51.880;-0.518;2023-04-25T03:47:38;2.40;;;1.05;;
39434;SDS011;66825;51.880;-0.518;2023-04-25T03:50:03;1.88;;;1.10;;
39434;SDS011;66825;51.880;-0.518;2023-04-25T03:52:29;2.55;;;1.30;;
39434;SDS011;66825;51.880;-0.518;2023-04-25T03:54:54;2.50;;;1.20;;
39434;SDS011;66825;51.880;-0.518;2023-04-25T03:57:20;1.90;;;1.10;;
39434;SDS011;66825;51.880;-0.518;2023-04-25T03:59:45;1.80;;;1.10;;
39434;SDS011;66825;51.880;-0.518;2023-04-25T04:02:11;1.88;;;1.10;;
39434;SDS011;66825;51.880;-0.518;2023-04-25T04:04:36;1.90;;;0.90;;
39434;SDS011;66825;51.880;-0.518;2023-04-25T04:07:02;1.35;;;0.95;;
39434;SDS011;66825;51.880;-0.518;2023-04-25T04:09:28;1.80;;;1.08;;
39434;SDS011;66825;51.880;-0.518;2023-04-25T04:11:53;1.83;;;1.00;;
39434;SDS011;66825;51.880;-0.518;2023-04-25T04:14:19;2.22;;;1.10;;
39434;SDS011;66825;51.880;-0.518;2023-04-25T04:16:44;1.77;;;0.90;;
39434;SDS011;66825;51.880;-0.518;2023-04-25T04:19:10;2.45;;;1.10;;
39434;SDS011;66825;51.880;-0.518;2023-04-25T04:21:36;2.67;;;1.13;;
39434;SDS011;66825;51.880;-0.518;2023-04-25T04:24:01;1.85;;;1.10;;
39434;SDS011;66825;51.880;-0.518;2023-04-25T04:26:27;2.30;;;1.20;;
39434;SDS011;66825;51.880;-0.518;2023-04-25T04:28:52;2.13;;;1.20;;
39434;SDS011;66825;51.880;-0.518;2023-04-25T04:31:22;2.00;;;1.00;;
39434;SDS011;66825;51.880;-0.518;2023-04-25T04:33:49;1.90;;;1.00;;
39434;SDS011;66825;51.880;-0.518;2023-04-25T04:36:14;2.47;;;1.17;;
39434;SDS011;66825;51.880;-0.518;2023-04-25T04:38:40;1.92;;;1.00;;
39434;SDS011;66825;51.880;-0.518;2023-04-25T04:41:07;2.35;;;1.10;;
39434;SDS011;66825;51.880;-0.518;2023-04-25T04:43:33;2.72;;;1.40;;
39434;SDS011;66825;51.880;-0.518;2023-04-25T04:46:00;1.75;;;1.10;;
39434;SDS011;66825;51.880;-0.518;2023-04-25T04:48:25;1.80;;;1.00;;
39434;SDS011;66825;51.880;-0.518;2023-04-25T04:50:51;2.38;;;1.25;;
39434;SDS011;66825;51.880;-0.518;2023-04-25T04:53:17;1.70;;;0.90;;
39434;SDS011;66825;51.880;-0.518;2023-04-25T04:55:43;2.33;;;1.00;;
39434;SDS011;66825;51.880;-0.518;2023-04-25T04:58:09;2.22;;;0.95;;
39434;SDS011;66825;51.880;-0.518;2023-04-25T05:00:34;1.40;;;1.00;;
39434;SDS011;66825;51.880;-0.518;2023-04-25T05:03:00;2.13;;;1.10;;
39434;SDS011;66825;51.880;-0.518;2023-04-25T05:05:26;1.30;;;0.90;;
39434;SDS011;66825;51.880;-0.518;2023-04-25T05:07:51;2.13;;;1.00;;
39434;SDS011;66825;51.880;-0.518;2023-04-25T05:10:17;1.70;;;0.95;;
39434;SDS011;66825;51.880;-0.518;2023-04-25T05:12:44;2.25;;;1.23;;
39434;SDS011;66825;51.880;-0.518;2023-04-25T05:15:10;1.50;;;0.90;;
39434;SDS011;66825;51.880;-0.518;2023-04-25T05:17:35;2.17;;;0.90;;
39434;SDS011;66825;51.880;-0.518;2023-04-25T05:20:01;2.10;;;1.08;;
39434;SDS011;66825;51.880;-0.518;2023-04-25T05:22:27;2.05;;;1.08;;
39434;SDS011;66825;51.880;-0.518;2023-04-25T05:24:52;2.00;;;1.10;;
39434;SDS011;66825;51.880;-0.518;2023-04-25T05:27:18;3.17;;;1.00;;
39434;SDS011;66825;51.880;-0.518;2023-04-25T05:29:44;1.90;;;1.00;;
39434;SDS011;66825;51.880;-0.518;2023-04-25T05:32:10;1.80;;;0.88;;
39434;SDS011;66825;51.880;-0.518;2023-04-25T05:34:36;1.80;;;1.00;;
39434;SDS011;66825;51.880;-0.518;2023-04-25T05:37:02;2.08;;;1.02;;
39434;SDS011;66825;51.880;-0.518;2023-04-25T05:39:27;2.58;;;1.15;;
39434;SDS011;66825;51.880;-0.518;2023-04-25T05:41:53;1.42;;;0.90;;
39434;SDS011;66825;51.880;-0.518;2023-04-25T05:44:18;2.00;;;1.13;;
39434;SDS011;66825;51.880;-0.518;2023-04-25T05:46:44;1.95;;;0.90;;
39434;SDS011;66825;51.880;-0.518;2023-04-25T05:49:09;1.63;;;1.10;;
39434;SDS011;66825;51.880;-0.518;2023-04-25T05:51:35;1.58;;;1.02;;
39434;SDS011;66825;51.880;-0.518;2023-04-25T05:54:00;1.50;;;0.75;;
39434;SDS011;66825;51.880;-0.518;2023-04-25T05:56:26;1.58;;;0.85;;
39434;SDS011;66825;51.880;-0.518;2023-04-25T05:58:51;1.75;;;1.00;;
39434;SDS011;66825;51.880;-0.518;2023-04-25T06:01:17;1.77;;;1.08;;
39434;SDS011;66825;51.880;-0.518;2023-04-25T06:03:42;1.98;;;0.93;;
39434;SDS011;66825;51.880;-0.518;2023-04-25T06:06:08;1.52;;;0.90;;
39434;SDS011;66825;51.880;-0.518;2023-04-25T06:08:34;1.65;;;1.05;;
39434;SDS011;66825;51.880;-0.518;2023-04-25T06:11:00;2.03;;;1.10;;
39434;SDS011;66825;51.880;-0.518;2023-04-25T06:13:25;1.88;;;1.13;;
39434;SDS011;66825;51.880;-0.518;2023-04-25T06:15:50;3.33;;;1.02;;
39434;SDS011;66825;51.880;-0.518;2023-04-25T06:18:16;1.88;;;1.20;;
39434;SDS011;66825;51.880;-0.518;2023-04-25T06:20:41;2.28;;;1.30;;
39434;SDS011;66825;51.880;-0.518;2023-04-25T06:23:07;1.52;;;0.93;;
39434;SDS011;66825;51.880;-0.518;2023-04-25T06:25:32;1.85;;;1.10;;
39434;SDS011;66825;51.880;-0.518;2023-04-25T06:27:58;2.00;;;1.20;;
39434;SDS011;66825;51.880;-0.518;2023-04-25T06:30:23;1.77;;;0.90;;
39434;SDS011;66825;51.880;-0.518;2023-04-25T06:32:51;2.08;;;0.98;;
39434;SDS011;66825;51.880;-0.518;2023-04-25T06:35:18;2.63;;;0.95;;
39434;SDS011;66825;51.880;-0.518;2023-04-25T06:37:43;2.15;;;1.10;;
39434;SDS011;66825;51.880;-0.518;2023-04-25T06:40:09;2.03;;;1.15;;
39434;SDS011;66825;51.880;-0.518;2023-04-25T06:42:35;2.10;;;1.23;;
39434;SDS011;66825;51.880;-0.518;2023-04-25T06:45:00;3.25;;;1.33;;
39434;SDS011;66825;51.880;-0.518;2023-04-25T06:47:26;3.63;;;1.50;;
39434;SDS011;66825;51.880;-0.518;2023-04-25T06:49:51;3.17;;;1.40;;
39434;SDS011;66825;51.880;-0.518;2023-04-25T06:52:17;2.60;;;1.60;;
39434;SDS011;66825;51.880;-0.518;2023-04-25T06:54:43;2.70;;;1.55;;
39434;SDS011;66825;51.880;-0.518;2023-04-25T06:57:08;3.08;;;1.65;;
39434;SDS011;66825;51.880;-0.518;2023-04-25T06:59:34;2.53;;;1.67;;
39434;SDS011;66825;51.880;-0.518;2023-04-25T07:01:59;3.10;;;1.88;;
39434;SDS011;66825;51.880;-0.518;2023-04-25T07:04:25;3.22;;;1.45;;
39434;SDS011;66825;51.880;-0.518;2023-04-25T07:06:50;2.20;;;1.40;;
39434;SDS011;66825;51.880;-0.518;2023-04-25T07:09:16;2.60;;;1.35;;
39434;SDS011;66825;51.880;-0.518;2023-04-25T07:11:42;2.80;;;1.58;;
39434;SDS011;66825;51.880;-0.518;2023-04-25T07:14:07;2.55;;;1.70;;
39434;SDS011;66825;51.880;-0.518;2023-04-25T07:16:33;2.60;;;1.65;;
39434;SDS011;66825;51.880;-0.518;2023-04-25T07:18:58;2.22;;;1.60;;
39434;SDS011;66825;51.880;-0.518;2023-04-25T07:21:24;3.00;;;1.50;;
39434;SDS011;66825;51.880;-0.518;2023-04-25T07:23:50;2.85;;;1.63;;
39434;SDS011;66825;51.880;-0.518;2023-04-25T07:26:16;2.55;;;1.50;;
39434;SDS011;66825;51.880;-0.518;2023-04-25T07:28:41;3.70;;;1.73;;
39434;SDS011;66825;51.880;-0.518;2023-04-25T07:31:08;2.35;;;1.48;;
39434;SDS011;66825;51.880;-0.518;2023-04-25T07:33:34;3.03;;;1.83;;
39434;SDS011;66825;51.880;-0.518;2023-04-25T07:35:59;3.03;;;1.50;;
39434;SDS011;66825;51.880;-0.518;2023-04-25T07:38:25;2.53;;;1.70;;
39434;SDS011;66825;51.880;-0.518;2023-04-25T07:40:51;3.45;;;1.70;;
39434;SDS011;66825;51.880;-0.518;2023-04-25T07:43:16;3.63;;;2.13;;
39434;SDS011;66825;51.880;-0.518;2023-04-25T07:45:42;4.05;;;2.17;;
39434;SDS011;66825;51.880;-0.518;2023-04-25T07:48:11;3.15;;;1.90;;
39434;SDS011;66825;51.880;-0.518;2023-04-25T07:50:41;3.42;;;1.95;;
39434;SDS011;66825;51.880;-0.518;2023-04-25T07:53:06;4.25;;;2.17;;
39434;SDS011;66825;51.880;-0.518;2023-04-25T07:55:32;4.25;;;2.50;;
39434;SDS011;66825;51.880;-0.518;2023-04-25T07:57:57;4.47;;;2.40;;
39434;SDS011;66825;51.880;-0.518;2023-04-25T08:00:23;3.85;;;2.35;;
39434;SDS011;66825;51.880;-0.518;2023-04-25T08:02:48;4.78;;;2.35;;
39434;SDS011;66825;51.880;-0.518;2023-04-25T08:05:15;3.58;;;2.22;;
39434;SDS011;66825;51.880;-0.518;2023-04-25T08:07:41;6.07;;;2.70;;
39434;SDS011;66825;51.880;-0.518;2023-04-25T08:10:07;3.90;;;2.30;;
39434;SDS011;66825;51.880;-0.518;2023-04-25T08:12:33;4.40;;;2.20;;
39434;SDS011;66825;51.880;-0.518;2023-04-25T08:14:58;5.15;;;2.47;;
39434;SDS011;66825;51.880;-0.518;2023-04-25T08:17:24;5.30;;;2.25;;
39434;SDS011;66825;51.880;-0.518;2023-04-25T08:19:49;6.07;;;2.50;;
39434;SDS011;66825;51.880;-0.518;2023-04-25T08:22:15;4.88;;;2.25;;
39434;SDS011;66825;51.880;-0.518;2023-04-25T08:24:41;6.28;;;2.40;;
39434;SDS011;66825;51.880;-0.518;2023-04-25T08:27:07;7.00;;;2.85;;
39434;SDS011;66825;51.880;-0.518;2023-04-25T08:29:33;9.48;;;2.70;;
39434;SDS011;66825;51.880;-0.518;2023-04-25T08:31:59;9.25;;;3.13;;
39434;SDS011;66825;51.880;-0.518;2023-04-25T08:34:25;6.35;;;2.40;;
39434;SDS011;66825;51.880;-0.518;2023-04-25T08:36:51;6.20;;;2.60;;
39434;SDS011;66825;51.880;-0.518;2023-04-25T08:39:16;8.27;;;2.38;;
39434;SDS011;66825;51.880;-0.518;2023-04-25T08:41:42;6.20;;;2.20;;
39434;SDS011;66825;51.880;-0.518;2023-04-25T08:44:09;6.93;;;2.45;;
39434;SDS011;66825;51.880;-0.518;2023-04-25T08:46:37;6.07;;;2.35;;
39434;SDS011;66825;51.880;-0.518;2023-04-25T08:49:03;6.18;;;2.30;;
39434;SDS011;66825;51.880;-0.518;2023-04-25T08:51:32;4.60;;;2.05;;
39434;SDS011;66825;51.880;-0.518;2023-04-25T08:54:02;7.93;;;2.28;;
39434;SDS011;66825;51.880;-0.518;2023-04-25T08:56:44;10.25;;;2.55;;
39434;SDS011;66825;51.880;-0.518;2023-04-25T08:59:11;12.93;;;2.85;;
39434;SDS011;66825;51.880;-0.518;2023-04-25T09:01:37;7.30;;;2.53;;
39434;SDS011;66825;51.880;-0.518;2023-04-25T09:04:03;8.18;;;2.58;;
39434;SDS011;66825;51.880;-0.518;2023-04-25T09:06:29;5.32;;;2.40;;
39434;SDS011;66825;51.880;-0.518;2023-04-25T09:09:05;5.82;;;2.50;;
39434;SDS011;66825;51.880;-0.518;2023-04-25T09:11:32;10.48;;;2.40;;
39434;SDS011;66825;51.880;-0.518;2023-04-25T09:14:11;4.93;;;2.13;;
39434;SDS011;66825;51.880;-0.518;2023-04-25T09:17:14;4.07;;;2.17;;
39434;SDS011;66825;51.880;-0.518;2023-04-25T09:19:36;3.97;;;1.75;;
39434;SDS011;66825;51.880;-0.518;2023-04-25T09:22:04;5.55;;;2.00;;
39434;SDS011;66825;51.880;-0.518;2023-04-25T09:24:34;4.40;;;2.00;;
39434;SDS011;66825;51.880;-0.518;2023-04-25T09:27:05;5.32;;;2.03;;
39434;SDS011;66825;51.880;-0.518;2023-04-25T09:29:35;3.92;;;2.10;;
39434;SDS011;66825;51.880;-0.518;2023-04-25T09:34:44;6.65;;;2.25;;
39434;SDS011;66825;51.880;-0.518;2023-04-25T09:37:23;3.45;;;1.60;;
39434;SDS011;66825;51.880;-0.518;2023-04-25T09:42:17;6.75;;;2.00;;
39434;SDS011;66825;51.880;-0.518;2023-04-25T09:44:46;7.32;;;2.20;;
39434;SDS011;66825;51.880;-0.518;2023-04-25T09:47:13;8.20;;;2.10;;
39434;SDS011;66825;51.880;-0.518;2023-04-25T09:49:41;7.70;;;2.22;;
39434;SDS011;66825;51.880;-0.518;2023-04-25T09:52:07;6.25;;;1.60;;
39434;SDS011;66825;51.880;-0.518;2023-04-25T09:54:34;5.38;;;1.80;;
39434;SDS011;66825;51.880;-0.518;2023-04-25T09:57:02;5.20;;;1.63;;
39434;SDS011;66825;51.880;-0.518;2023-04-25T09:59:44;3.20;;;1.55;;
39434;SDS011;66825;51.880;-0.518;2023-04-25T10:02:18;4.72;;;2.00;;
39434;SDS011;66825;51.880;-0.518;2023-04-25T10:04:50;5.60;;;1.52;;
39434;SDS011;66825;51.880;-0.518;2023-04-25T10:07:20;4.25;;;1.60;;
39434;SDS011;66825;51.880;-0.518;2023-04-25T10:09:59;4.82;;;1.60;;
39434;SDS011;66825;51.880;-0.518;2023-04-25T10:12:29;7.35;;;2.00;;
39434;SDS011;66825;51.880;-0.518;2023-04-25T10:14:56;5.50;;;1.60;;
39434;SDS011;66825;51.880;-0.518;2023-04-25T10:17:23;9.15;;;1.90;;
39434;SDS011;66825;51.880;-0.518;2023-04-25T10:19:48;4.38;;;1.90;;
39434;SDS011;66825;51.880;-0.518;2023-04-25T10:22:16;7.85;;;1.80;;
39434;SDS011;66825;51.880;-0.518;2023-04-25T10:24:46;9.60;;;2.10;;
39434;SDS011;66825;51.880;-0.518;2023-04-25T10:27:12;6.63;;;1.75;;
39434;SDS011;66825;51.880;-0.518;2023-04-25T10:29:38;6.57;;;1.98;;
39434;SDS011;66825;51.880;-0.518;2023-04-25T10:32:03;3.80;;;1.73;;
39434;SDS011;66825;51.880;-0.518;2023-04-25T10:34:39;6.93;;;1.83;;
39434;SDS011;66825;51.880;-0.518;2023-04-25T10:37:12;5.32;;;1.70;;
39434;SDS011;66825;51.880;-0.518;2023-04-25T10:39:38;5.47;;;1.75;;
39434;SDS011;66825;51.880;-0.518;2023-04-25T10:42:06;6.13;;;1.70;;
39434;SDS011;66825;51.880;-0.518;2023-04-25T10:44:33;4.45;;;1.70;;
39434;SDS011;66825;51.880;-0.518;2023-04-25T10:47:00;4.93;;;1.25;;
39434;SDS011;66825;51.880;-0.518;2023-04-25T10:52:15;9.70;;;2.17;;
39434;SDS011;66825;51.880;-0.518;2023-04-25T10:54:48;7.00;;;2.00;;
39434;SDS011;66825;51.880;-0.518;2023-04-25T11:00:21;6.30;;;2.05;;
39434;SDS011;66825;51.880;-0.518;2023-04-25T11:02:52;9.00;;;2.20;;
39434;SDS011;66825;51.880;-0.518;2023-04-25T11:07:51;8.23;;;2.67;;
39434;SDS011;66825;51.880;-0.518;2023-04-25T11:10:19;6.93;;;2.30;;
39434;SDS011;66825;51.880;-0.518;2023-04-25T11:12:45;6.65;;;2.20;;
39434;SDS011;66825;51.880;-0.518;2023-04-25T11:15:12;7.07;;;2.17;;
39434;SDS011;66825;51.880;-0.518;2023-04-25T11:17:38;5.25;;;1.70;;
39434;SDS011;66825;51.880;-0.518;2023-04-25T11:20:06;5.85;;;1.70;;
39434;SDS011;66825;51.880;-0.518;2023-04-25T11:22:37;4.35;;;1.55;;
39434;SDS011;66825;51.880;-0.518;2023-04-25T11:25:04;3.35;;;1.17;;
39434;SDS011;66825;51.880;-0.518;2023-04-25T11:27:31;3.30;;;1.10;;
39434;SDS011;66825;51.880;-0.518;2023-04-25T11:29:56;3.88;;;1.20;;
39434;SDS011;66825;51.880;-0.518;2023-04-25T11:32:22;5.00;;;0.90;;
39434;SDS011;66825;51.880;-0.518;2023-04-25T11:34:48;7.07;;;1.70;;
39434;SDS011;66825;51.880;-0.518;2023-04-25T11:37:14;11.13;;;2.30;;
39434;SDS011;66825;51.880;-0.518;2023-04-25T11:39:43;8.35;;;2.45;;
39434;SDS011;66825;51.880;-0.518;2023-04-25T11:42:10;8.48;;;2.05;;
39434;SDS011;66825;51.880;-0.518;2023-04-25T11:44:37;5.97;;;1.85;;
39434;SDS011;66825;51.880;-0.518;2023-04-25T11:47:03;5.43;;;1.80;;
39434;SDS011;66825;51.880;-0.518;2023-04-25T11:49:32;5.00;;;1.48;;
39434;SDS011;66825;51.880;-0.518;2023-04-25T11:51:57;5.38;;;1.38;;
39434;SDS011;66825;51.880;-0.518;2023-04-25T11:54:23;6.57;;;1.73;;
39434;SDS011;66825;51.880;-0.518;2023-04-25T11:56:48;20.10;;;2.80;;
39434;SDS011;66825;51.880;-0.518;2023-04-25T11:59:14;2.85;;;0.90;;
39434;SDS011;66825;51.880;-0.518;2023-04-25T12:01:40;5.13;;;1.38;;
39434;SDS011;66825;51.880;-0.518;2023-04-25T12:04:13;2.88;;;1.08;;
39434;SDS011;66825;51.880;-0.518;2023-04-25T12:06:57;4.03;;;1.23;;
39434;SDS011;66825;51.880;-0.518;2023-04-25T12:09:32;2.30;;;0.90;;
39434;SDS011;66825;51.880;-0.518;2023-04-25T12:11:59;2.40;;;0.93;;
39434;SDS011;66825;51.880;-0.518;2023-04-25T12:14:30;4.20;;;0.98;;
39434;SDS011;66825;51.880;-0.518;2023-04-25T12:17:00;3.75;;;1.10;;
39434;SDS011;66825;51.880;-0.518;2023-04-25T12:19:31;5.30;;;1.33;;
39434;SDS011;66825;51.880;-0.518;2023-04-25T12:21:59;3.40;;;1.10;;
39434;SDS011;66825;51.880;-0.518;2023-04-25T12:24:26;5.72;;;1.23;;
39434;SDS011;66825;51.880;-0.518;2023-04-25T12:27:05;4.15;;;1.25;;
39434;SDS011;66825;51.880;-0.518;2023-04-25T12:29:33;3.83;;;1.30;;
39434;SDS011;66825;51.880;-0.518;2023-04-25T12:31:59;4.90;;;1.50;;
39434;SDS011;66825;51.880;-0.518;2023-04-25T12:34:27;6.13;;;1.67;;
39434;SDS011;66825;51.880;-0.518;2023-04-25T12:36:53;5.43;;;1.50;;
39434;SDS011;66825;51.880;-0.518;2023-04-25T12:39:20;4.53;;;1.30;;
39434;SDS011;66825;51.880;-0.518;2023-04-25T12:41:48;4.07;;;1.40;;
39434;SDS011;66825;51.880;-0.518;2023-04-25T12:44:14;4.10;;;1.27;;
39434;SDS011;66825;51.880;-0.518;2023-04-25T12:46:40;4.65;;;1.38;;
39434;SDS011;66825;51.880;-0.518;2023-04-25T12:49:06;4.28;;;1.20;;
39434;SDS011;66825;51.880;-0.518;2023-04-25T12:51:33;5.03;;;1.38;;
39434;SDS011;66825;51.880;-0.518;2023-04-25T12:54:02;5.45;;;1.60;;
39434;SDS011;66825;51.880;-0.518;2023-04-25T12:56:29;3.75;;;1.23;;
39434;SDS011;66825;51.880;-0.518;2023-04-25T12:58:58;3.33;;;1.10;;
39434;SDS011;66825;51.880;-0.518;2023-04-25T13:01:24;7.05;;;1.75;;
39434;SDS011;66825;51.880;-0.518;2023-04-25T13:03:51;5.95;;;1.50;;
39434;SDS011;66825;51.880;-0.518;2023-04-25T13:06:17;5.50;;;1.50;;
39434;SDS011;66825;51.880;-0.518;2023-04-25T13:08:44;7.30;;;1.67;;
39434;SDS011;66825;51.880;-0.518;2023-04-25T13:11:10;7.28;;;1.88;;
39434;SDS011;66825;51.880;-0.518;2023-04-25T13:13:36;8.50;;;1.60;;
39434;SDS011;66825;51.880;-0.518;2023-04-25T13:16:02;10.25;;;1.92;;
39434;SDS011;66825;51.880;-0.518;2023-04-25T13:18:29;9.27;;;1.85;;
39434;SDS011;66825;51.880;-0.518;2023-04-25T13:20:55;5.70;;;1.30;;
39434;SDS011;66825;51.880;-0.518;2023-04-25T13:23:21;4.18;;;1.45;;
39434;SDS011;66825;51.880;-0.518;2023-04-25T13:25:47;3.65;;;1.20;;
39434;SDS011;66825;51.880;-0.518;2023-04-25T13:28:13;3.72;;;1.30;;
39434;SDS011;66825;51.880;-0.518;2023-04-25T13:30:39;7.18;;;1.73;;
39434;SDS011;66825;51.880;-0.518;2023-04-25T13:33:05;5.40;;;1.67;;
39434;SDS011;66825;51.880;-0.518;2023-04-25T13:35:32;9.38;;;1.88;;
39434;SDS011;66825;51.880;-0.518;2023-04-25T13:37:58;5.63;;;1.65;;
39434;SDS011;66825;51.880;-0.518;2023-04-25T13:40:25;8.48;;;2.08;;
39434;SDS011;66825;51.880;-0.518;2023-04-25T13:42:51;8.68;;;1.90;;
39434;SDS011;66825;51.880;-0.518;2023-04-25T13:45:17;3.83;;;1.40;;
39434;SDS011;66825;51.880;-0.518;2023-04-25T13:47:42;6.82;;;2.03;;
39434;SDS011;66825;51.880;-0.518;2023-04-25T13:50:08;4.57;;;1.50;;
39434;SDS011;66825;51.880;-0.518;2023-04-25T13:52:34;5.32;;;1.75;;
39434;SDS011;66825;51.880;-0.518;2023-04-25T13:55:00;16.10;;;2.63;;
39434;SDS011;66825;51.880;-0.518;2023-04-25T13:57:28;5.72;;;1.77;;
39434;SDS011;66825;51.880;-0.518;2023-04-25T13:59:53;8.77;;;2.70;;
39434;SDS011;66825;51.880;-0.518;2023-04-25T14:02:19;10.18;;;2.28;;
39434;SDS011;66825;51.880;-0.518;2023-04-25T14:04:44;11.20;;;2.33;;
39434;SDS011;66825;51.880;-0.518;2023-04-25T14:07:10;12.00;;;2.17;;
39434;SDS011;66825;51.880;-0.518;2023-04-25T14:09:36;7.40;;;2.58;;
39434;SDS011;66825;51.880;-0.518;2023-04-25T14:12:02;4.65;;;1.55;;
39434;SDS011;66825;51.880;-0.518;2023-04-25T14:14:27;5.18;;;1.92;;
39434;SDS011;66825;51.880;-0.518;2023-04-25T14:16:53;5.43;;;2.03;;
39434;SDS011;66825;51.880;-0.518;2023-04-25T14:19:19;5.70;;;1.77;;
39434;SDS011;66825;51.880;-0.518;2023-04-25T14:21:46;6.07;;;1.40;;
39434;SDS011;66825;51.880;-0.518;2023-04-25T14:24:11;10.07;;;2.35;;
39434;SDS011;66825;51.880;-0.518;2023-04-25T14:26:38;9.38;;;2.13;;
39434;SDS011;66825;51.880;-0.518;2023-04-25T14:29:04;5.82;;;1.98;;
39434;SDS011;66825;51.880;-0.518;2023-04-25T14:31:30;6.95;;;1.92;;
39434;SDS011;66825;51.880;-0.518;2023-04-25T14:33:56;4.63;;;1.60;;
39434;SDS011;66825;51.880;-0.518;2023-04-25T14:36:22;6.32;;;1.73;;
39434;SDS011;66825;51.880;-0.518;2023-04-25T14:38:47;5.90;;;1.83;;
39434;SDS011;66825;51.880;-0.518;2023-04-25T14:41:13;4.03;;;1.70;;
39434;SDS011;66825;51.880;-0.518;2023-04-25T14:43:38;4.45;;;1.45;;